sensor_id;sensor_type;location;lat;lon;timestamp;P1;durP1;ratioP1;P2;durP2;ratioP2
59571;SDS011;59406;45.602;11.904;2023-04-06T00:07:52;7.47;;;3.25;;
59571;SDS011;59406;45.602;11.904;2023-04-06T00:10:19;6.35;;;3.20;;
59571;SDS011;59406;45.602;11.904;2023-04-06T00:12:45;6.80;;;2.83;;
59571;SDS011;59406;45.602;11.904;2023-04-06T00:15:11;5.70;;;2.40;;
59571;SDS011;59406;45.602;11.904;2023-04-06T00:17:37;6.85;;;3.33;;
59571;SDS011;59406;45.602;11.904;2023-04-06T00:20:03;5.80;;;2.88;;
59571;SDS011;59406;45.602;11.904;2023-04-06T00:22:29;6.90;;;3.60;;
59571;SDS011;59406;45.602;11.904;2023-04-06T00:24:55;9.20;;;4.40;;
59571;SDS011;59406;45.602;11.904;2023-04-06T00:27:21;7.00;;;4.53;;
59571;SDS011;59406;45.602;11.904;2023-04-06T00:29:47;7.88;;;4.20;;
59571;SDS011;59406;45.602;11.904;2023-04-06T00:32:13;8.17;;;4.10;;
59571;SDS011;59406;45.602;11.904;2023-04-06T00:34:39;7.45;;;4.50;;
59571;SDS011;59406;45.602;11.904;2023-04-06T00:39:40;6.57;;;3.72;;
59571;SDS011;59406;45.602;11.904;2023-04-06T00:42:15;7.13;;;4.23;;
59571;SDS011;59406;45.602;11.904;2023-04-06T00:47:10;8.52;;;4.15;;
59571;SDS011;59406;45.602;11.904;2023-04-06T00:52:09;7.25;;;4.53;;
59571;SDS011;59406;45.602;11.904;2023-04-06T00:54:35;7.27;;;4.07;;
59571;SDS011;59406;45.602;11.904;2023-04-06T00:59:34;8.07;;;4.18;;
59571;SDS011;59406;45.602;11.904;2023-04-06T01:02:00;6.90;;;3.87;;
59571;SDS011;59406;45.602;11.904;2023-04-06T01:09:35;6.25;;;2.95;;
59571;SDS011;59406;45.602;11.904;2023-04-06T01:12:01;6.47;;;3.27;;
59571;SDS011;59406;45.602;11.904;2023-04-06T01:14:27;6.63;;;4.00;;
59571;SDS011;59406;45.602;11.904;2023-04-06T01:16:53;6.50;;;3.72;;
59571;SDS011;59406;45.602;11.904;2023-04-06T01:24:20;7.43;;;4.00;;
59571;SDS011;59406;45.602;11.904;2023-04-06T01:26:47;7.35;;;3.95;;
59571;SDS011;59406;45.602;11.904;2023-04-06T01:29:13;5.63;;;3.13;;
59571;SDS011;59406;45.602;11.904;2023-04-06T01:31:39;6.72;;;3.33;;
59571;SDS011;59406;45.602;11.904;2023-04-06T01:39:08;7.72;;;4.28;;
59571;SDS011;59406;45.602;11.904;2023-04-06T01:41:33;7.10;;;3.60;;
59571;SDS011;59406;45.602;11.904;2023-04-06T01:44:00;6.87;;;3.90;;
59571;SDS011;59406;45.602;11.904;2023-04-06T01:46:26;7.37;;;4.13;;
59571;SDS011;59406;45.602;11.904;2023-04-06T01:48:52;6.90;;;4.03;;
59571;SDS011;59406;45.602;11.904;2023-04-06T01:51:18;8.02;;;4.28;;
59571;SDS011;59406;45.602;11.904;2023-04-06T01:53:44;6.37;;;3.63;;
59571;SDS011;59406;45.602;11.904;2023-04-06T01:56:10;6.15;;;3.42;;
59571;SDS011;59406;45.602;11.904;2023-04-06T01:58:35;7.70;;;4.38;;
59571;SDS011;59406;45.602;11.904;2023-04-06T02:03:26;7.07;;;4.30;;
59571;SDS011;59406;45.602;11.904;2023-04-06T02:05:52;6.38;;;3.72;;
59571;SDS011;59406;45.602;11.904;2023-04-06T02:08:18;5.95;;;3.10;;
59571;SDS011;59406;45.602;11.904;2023-04-06T02:10:44;8.57;;;4.20;;
59571;SDS011;59406;45.602;11.904;2023-04-06T02:13:10;8.07;;;4.28;;
59571;SDS011;59406;45.602;11.904;2023-04-06T02:15:36;7.38;;;4.28;;
59571;SDS011;59406;45.602;11.904;2023-04-06T02:20:28;6.47;;;3.63;;
59571;SDS011;59406;45.602;11.904;2023-04-06T02:22:56;7.00;;;3.80;;
59571;SDS011;59406;45.602;11.904;2023-04-06T02:25:23;6.07;;;3.20;;
59571;SDS011;59406;45.602;11.904;2023-04-06T02:27:49;5.77;;;3.37;;
59571;SDS011;59406;45.602;11.904;2023-04-06T02:30:15;5.82;;;3.63;;
59571;SDS011;59406;45.602;11.904;2023-04-06T02:40:05;5.93;;;3.10;;
59571;SDS011;59406;45.602;11.904;2023-04-06T02:42:31;6.13;;;3.15;;
59571;SDS011;59406;45.602;11.904;2023-04-06T02:45:00;6.82;;;3.20;;
59571;SDS011;59406;45.602;11.904;2023-04-06T02:47:26;6.50;;;3.72;;
59571;SDS011;59406;45.602;11.904;2023-04-06T02:49:52;6.95;;;3.72;;
59571;SDS011;59406;45.602;11.904;2023-04-06T02:57:12;6.00;;;3.37;;
59571;SDS011;59406;45.602;11.904;2023-04-06T03:04:44;6.33;;;3.73;;
59571;SDS011;59406;45.602;11.904;2023-04-06T03:07:10;6.13;;;3.20;;
59571;SDS011;59406;45.602;11.904;2023-04-06T03:12:07;5.57;;;2.90;;
59571;SDS011;59406;45.602;11.904;2023-04-06T03:14:33;6.70;;;3.63;;
59571;SDS011;59406;45.602;11.904;2023-04-06T03:16:59;6.83;;;3.77;;
59571;SDS011;59406;45.602;11.904;2023-04-06T03:19:25;5.43;;;3.03;;
59571;SDS011;59406;45.602;11.904;2023-04-06T03:21:51;6.70;;;3.33;;
59571;SDS011;59406;45.602;11.904;2023-04-06T03:26:46;6.03;;;3.27;;
59571;SDS011;59406;45.602;11.904;2023-04-06T03:29:12;6.75;;;3.65;;
59571;SDS011;59406;45.602;11.904;2023-04-06T03:31:40;6.47;;;3.57;;
59571;SDS011;59406;45.602;11.904;2023-04-06T03:34:05;5.80;;;2.75;;
59571;SDS011;59406;45.602;11.904;2023-04-06T03:39:01;5.68;;;3.30;;
59571;SDS011;59406;45.602;11.904;2023-04-06T03:41:27;6.23;;;2.80;;
59571;SDS011;59406;45.602;11.904;2023-04-06T03:43:53;5.45;;;2.90;;
59571;SDS011;59406;45.602;11.904;2023-04-06T03:46:19;5.20;;;2.63;;
59571;SDS011;59406;45.602;11.904;2023-04-06T03:53:55;5.53;;;2.17;;
59571;SDS011;59406;45.602;11.904;2023-04-06T03:58:51;4.25;;;1.63;;
59571;SDS011;59406;45.602;11.904;2023-04-06T04:01:17;4.87;;;2.00;;
59571;SDS011;59406;45.602;11.904;2023-04-06T04:03:43;5.20;;;2.45;;
59571;SDS011;59406;45.602;11.904;2023-04-06T04:13:36;5.33;;;2.30;;
59571;SDS011;59406;45.602;11.904;2023-04-06T04:16:01;6.40;;;3.00;;
59571;SDS011;59406;45.602;11.904;2023-04-06T04:18:28;6.60;;;3.30;;
59571;SDS011;59406;45.602;11.904;2023-04-06T04:20:54;6.20;;;3.67;;
59571;SDS011;59406;45.602;11.904;2023-04-06T04:23:20;5.93;;;3.43;;
59571;SDS011;59406;45.602;11.904;2023-04-06T04:25:46;7.80;;;4.07;;
59571;SDS011;59406;45.602;11.904;2023-04-06T04:28:12;5.97;;;3.28;;
59571;SDS011;59406;45.602;11.904;2023-04-06T04:30:38;6.45;;;3.55;;
59571;SDS011;59406;45.602;11.904;2023-04-06T04:33:03;5.40;;;2.97;;
59571;SDS011;59406;45.602;11.904;2023-04-06T04:35:29;6.72;;;3.40;;
59571;SDS011;59406;45.602;11.904;2023-04-06T04:37:55;8.80;;;3.80;;
59571;SDS011;59406;45.602;11.904;2023-04-06T04:42:47;5.93;;;3.10;;
59571;SDS011;59406;45.602;11.904;2023-04-06T04:47:47;5.85;;;2.95;;
59571;SDS011;59406;45.602;11.904;2023-04-06T04:50:13;6.40;;;3.53;;
59571;SDS011;59406;45.602;11.904;2023-04-06T04:57:40;5.97;;;3.45;;
59571;SDS011;59406;45.602;11.904;2023-04-06T05:00:06;6.57;;;3.30;;
59571;SDS011;59406;45.602;11.904;2023-04-06T05:02:32;6.27;;;3.50;;
59571;SDS011;59406;45.602;11.904;2023-04-06T05:04:59;6.05;;;3.10;;
59571;SDS011;59406;45.602;11.904;2023-04-06T05:07:25;6.30;;;3.30;;
59571;SDS011;59406;45.602;11.904;2023-04-06T05:09:51;6.68;;;3.50;;
59571;SDS011;59406;45.602;11.904;2023-04-06T05:12:18;6.33;;;3.57;;
59571;SDS011;59406;45.602;11.904;2023-04-06T05:14:44;6.38;;;3.42;;
59571;SDS011;59406;45.602;11.904;2023-04-06T05:17:10;5.47;;;2.92;;
59571;SDS011;59406;45.602;11.904;2023-04-06T05:19:36;5.35;;;2.45;;
59571;SDS011;59406;45.602;11.904;2023-04-06T05:22:02;5.47;;;2.40;;
59571;SDS011;59406;45.602;11.904;2023-04-06T05:24:28;4.93;;;2.10;;
59571;SDS011;59406;45.602;11.904;2023-04-06T05:26:54;5.20;;;2.13;;
59571;SDS011;59406;45.602;11.904;2023-04-06T05:29:20;4.85;;;2.28;;
59571;SDS011;59406;45.602;11.904;2023-04-06T05:31:46;6.27;;;2.40;;
59571;SDS011;59406;45.602;11.904;2023-04-06T05:34:12;5.47;;;2.50;;
59571;SDS011;59406;45.602;11.904;2023-04-06T05:36:38;4.88;;;2.58;;
59571;SDS011;59406;45.602;11.904;2023-04-06T05:39:05;5.45;;;2.67;;
59571;SDS011;59406;45.602;11.904;2023-04-06T05:41:32;6.07;;;3.00;;
59571;SDS011;59406;45.602;11.904;2023-04-06T05:43:58;5.60;;;2.60;;
59571;SDS011;59406;45.602;11.904;2023-04-06T05:46:24;6.75;;;3.22;;
59571;SDS011;59406;45.602;11.904;2023-04-06T05:48:50;5.25;;;2.10;;
59571;SDS011;59406;45.602;11.904;2023-04-06T05:51:15;4.63;;;2.10;;
59571;SDS011;59406;45.602;11.904;2023-04-06T05:53:41;4.82;;;1.83;;
59571;SDS011;59406;45.602;11.904;2023-04-06T05:56:11;5.38;;;2.85;;
59571;SDS011;59406;45.602;11.904;2023-04-06T05:58:36;5.93;;;2.43;;
59571;SDS011;59406;45.602;11.904;2023-04-06T06:01:02;5.78;;;2.75;;
59571;SDS011;59406;45.602;11.904;2023-04-06T06:03:30;4.55;;;1.95;;
59571;SDS011;59406;45.602;11.904;2023-04-06T06:06:02;5.25;;;2.17;;
59571;SDS011;59406;45.602;11.904;2023-04-06T06:08:29;5.37;;;2.10;;
59571;SDS011;59406;45.602;11.904;2023-04-06T06:10:55;4.78;;;2.15;;
59571;SDS011;59406;45.602;11.904;2023-04-06T06:13:22;4.88;;;1.80;;
59571;SDS011;59406;45.602;11.904;2023-04-06T06:15:49;4.95;;;1.88;;
59571;SDS011;59406;45.602;11.904;2023-04-06T06:18:15;6.32;;;2.13;;
59571;SDS011;59406;45.602;11.904;2023-04-06T06:20:41;4.53;;;1.73;;
59571;SDS011;59406;45.602;11.904;2023-04-06T06:23:07;6.18;;;1.95;;
59571;SDS011;59406;45.602;11.904;2023-04-06T06:25:33;5.40;;;2.10;;
59571;SDS011;59406;45.602;11.904;2023-04-06T06:27:59;6.17;;;2.30;;
59571;SDS011;59406;45.602;11.904;2023-04-06T06:30:25;5.93;;;2.47;;
59571;SDS011;59406;45.602;11.904;2023-04-06T06:32:51;4.90;;;1.90;;
59571;SDS011;59406;45.602;11.904;2023-04-06T06:35:17;4.57;;;1.73;;
59571;SDS011;59406;45.602;11.904;2023-04-06T06:40:14;6.45;;;2.47;;
59571;SDS011;59406;45.602;11.904;2023-04-06T06:45:12;4.03;;;1.70;;
59571;SDS011;59406;45.602;11.904;2023-04-06T06:47:38;4.50;;;2.23;;
59571;SDS011;59406;45.602;11.904;2023-04-06T06:50:04;5.82;;;2.35;;
59571;SDS011;59406;45.602;11.904;2023-04-06T06:52:30;4.88;;;2.05;;
59571;SDS011;59406;45.602;11.904;2023-04-06T06:54:56;5.85;;;2.33;;
59571;SDS011;59406;45.602;11.904;2023-04-06T06:57:22;5.47;;;2.23;;
59571;SDS011;59406;45.602;11.904;2023-04-06T06:59:48;6.30;;;2.60;;
59571;SDS011;59406;45.602;11.904;2023-04-06T07:04:43;4.82;;;2.25;;
59571;SDS011;59406;45.602;11.904;2023-04-06T07:09:41;5.27;;;2.63;;
59571;SDS011;59406;45.602;11.904;2023-04-06T07:12:07;6.25;;;2.67;;
59571;SDS011;59406;45.602;11.904;2023-04-06T07:14:33;5.77;;;2.73;;
59571;SDS011;59406;45.602;11.904;2023-04-06T07:16:59;5.90;;;2.77;;
59571;SDS011;59406;45.602;11.904;2023-04-06T07:19:24;5.43;;;2.65;;
59571;SDS011;59406;45.602;11.904;2023-04-06T07:21:50;5.63;;;2.60;;
59571;SDS011;59406;45.602;11.904;2023-04-06T07:24:16;4.40;;;2.10;;
59571;SDS011;59406;45.602;11.904;2023-04-06T07:26:42;4.47;;;1.80;;
59571;SDS011;59406;45.602;11.904;2023-04-06T07:29:08;5.63;;;2.65;;
59571;SDS011;59406;45.602;11.904;2023-04-06T07:31:34;5.53;;;2.55;;
59571;SDS011;59406;45.602;11.904;2023-04-06T07:34:03;5.05;;;2.58;;
59571;SDS011;59406;45.602;11.904;2023-04-06T07:36:30;5.03;;;2.00;;
59571;SDS011;59406;45.602;11.904;2023-04-06T07:38:56;4.60;;;1.73;;
59571;SDS011;59406;45.602;11.904;2023-04-06T07:41:22;4.65;;;1.73;;
59571;SDS011;59406;45.602;11.904;2023-04-06T07:43:48;6.03;;;2.80;;
59571;SDS011;59406;45.602;11.904;2023-04-06T07:46:15;5.47;;;2.50;;
59571;SDS011;59406;45.602;11.904;2023-04-06T07:48:40;5.97;;;2.40;;
59571;SDS011;59406;45.602;11.904;2023-04-06T07:51:06;6.22;;;2.40;;
59571;SDS011;59406;45.602;11.904;2023-04-06T07:53:34;5.70;;;2.35;;
59571;SDS011;59406;45.602;11.904;2023-04-06T07:56:00;6.05;;;2.28;;
59571;SDS011;59406;45.602;11.904;2023-04-06T07:58:25;4.83;;;2.00;;
59571;SDS011;59406;45.602;11.904;2023-04-06T08:00:51;5.80;;;2.00;;
59571;SDS011;59406;45.602;11.904;2023-04-06T08:03:17;6.05;;;2.33;;
59571;SDS011;59406;45.602;11.904;2023-04-06T08:05:46;4.63;;;1.90;;
59571;SDS011;59406;45.602;11.904;2023-04-06T08:08:12;5.37;;;1.90;;
59571;SDS011;59406;45.602;11.904;2023-04-06T08:10:38;6.22;;;1.92;;
59571;SDS011;59406;45.602;11.904;2023-04-06T08:13:04;5.13;;;2.05;;
59571;SDS011;59406;45.602;11.904;2023-04-06T08:15:29;5.10;;;2.20;;
59571;SDS011;59406;45.602;11.904;2023-04-06T08:17:55;5.77;;;2.07;;
59571;SDS011;59406;45.602;11.904;2023-04-06T08:20:22;6.32;;;2.03;;
59571;SDS011;59406;45.602;11.904;2023-04-06T08:22:48;5.60;;;2.10;;
59571;SDS011;59406;45.602;11.904;2023-04-06T08:25:14;4.83;;;1.97;;
59571;SDS011;59406;45.602;11.904;2023-04-06T08:27:40;5.72;;;2.00;;
59571;SDS011;59406;45.602;11.904;2023-04-06T08:30:06;4.95;;;1.70;;
59571;SDS011;59406;45.602;11.904;2023-04-06T08:32:32;5.45;;;1.90;;
59571;SDS011;59406;45.602;11.904;2023-04-06T08:34:58;5.20;;;1.87;;
59571;SDS011;59406;45.602;11.904;2023-04-06T08:37:24;5.00;;;1.80;;
59571;SDS011;59406;45.602;11.904;2023-04-06T08:39:50;3.97;;;1.23;;
59571;SDS011;59406;45.602;11.904;2023-04-06T08:42:19;5.25;;;1.58;;
59571;SDS011;59406;45.602;11.904;2023-04-06T08:44:47;4.50;;;1.30;;
59571;SDS011;59406;45.602;11.904;2023-04-06T08:47:16;4.72;;;1.70;;
59571;SDS011;59406;45.602;11.904;2023-04-06T08:49:42;5.45;;;1.77;;
59571;SDS011;59406;45.602;11.904;2023-04-06T08:52:10;4.43;;;1.48;;
59571;SDS011;59406;45.602;11.904;2023-04-06T08:54:36;5.25;;;1.90;;
59571;SDS011;59406;45.602;11.904;2023-04-06T08:57:03;3.90;;;1.47;;
59571;SDS011;59406;45.602;11.904;2023-04-06T08:59:31;4.32;;;1.60;;
59571;SDS011;59406;45.602;11.904;2023-04-06T09:01:57;4.35;;;1.77;;
59571;SDS011;59406;45.602;11.904;2023-04-06T09:04:27;5.30;;;1.70;;
59571;SDS011;59406;45.602;11.904;2023-04-06T09:06:53;4.22;;;1.27;;
59571;SDS011;59406;45.602;11.904;2023-04-06T09:09:18;4.00;;;1.40;;
59571;SDS011;59406;45.602;11.904;2023-04-06T09:11:45;4.72;;;1.70;;
59571;SDS011;59406;45.602;11.904;2023-04-06T09:14:13;5.18;;;1.85;;
59571;SDS011;59406;45.602;11.904;2023-04-06T09:16:43;4.40;;;1.40;;
59571;SDS011;59406;45.602;11.904;2023-04-06T09:19:10;5.13;;;2.00;;
59571;SDS011;59406;45.602;11.904;2023-04-06T09:21:37;6.00;;;2.43;;
59571;SDS011;59406;45.602;11.904;2023-04-06T09:24:05;4.60;;;1.85;;
59571;SDS011;59406;45.602;11.904;2023-04-06T09:26:43;4.50;;;1.65;;
59571;SDS011;59406;45.602;11.904;2023-04-06T09:29:21;4.82;;;1.73;;
59571;SDS011;59406;45.602;11.904;2023-04-06T09:31:49;6.28;;;1.60;;
59571;SDS011;59406;45.602;11.904;2023-04-06T09:34:21;5.30;;;1.70;;
59571;SDS011;59406;45.602;11.904;2023-04-06T09:36:49;5.07;;;1.83;;
59571;SDS011;59406;45.602;11.904;2023-04-06T09:39:20;4.72;;;1.30;;
59571;SDS011;59406;45.602;11.904;2023-04-06T09:41:49;4.72;;;1.55;;
59571;SDS011;59406;45.602;11.904;2023-04-06T09:44:17;4.35;;;1.60;;
59571;SDS011;59406;45.602;11.904;2023-04-06T09:46:44;4.37;;;1.40;;
59571;SDS011;59406;45.602;11.904;2023-04-06T09:49:11;3.75;;;1.10;;
59571;SDS011;59406;45.602;11.904;2023-04-06T09:51:39;4.75;;;1.60;;
59571;SDS011;59406;45.602;11.904;2023-04-06T09:54:06;5.05;;;1.30;;
59571;SDS011;59406;45.602;11.904;2023-04-06T09:56:37;3.63;;;1.20;;
59571;SDS011;59406;45.602;11.904;2023-04-06T09:59:12;4.00;;;1.47;;
59571;SDS011;59406;45.602;11.904;2023-04-06T10:01:44;4.60;;;1.10;;
59571;SDS011;59406;45.602;11.904;2023-04-06T10:07:00;4.22;;;1.90;;
59571;SDS011;59406;45.602;11.904;2023-04-06T10:09:28;4.93;;;1.98;;
59571;SDS011;59406;45.602;11.904;2023-04-06T10:12:02;6.30;;;2.23;;
59571;SDS011;59406;45.602;11.904;2023-04-06T10:14:30;5.25;;;1.67;;
59571;SDS011;59406;45.602;11.904;2023-04-06T10:16:59;6.22;;;2.25;;
59571;SDS011;59406;45.602;11.904;2023-04-06T10:19:26;5.65;;;1.83;;
59571;SDS011;59406;45.602;11.904;2023-04-06T10:21:57;5.32;;;2.35;;
59571;SDS011;59406;45.602;11.904;2023-04-06T10:24:25;3.60;;;1.30;;
59571;SDS011;59406;45.602;11.904;2023-04-06T10:27:26;3.67;;;1.23;;
59571;SDS011;59406;45.602;11.904;2023-04-06T10:29:52;4.85;;;2.10;;
59571;SDS011;59406;45.602;11.904;2023-04-06T10:32:18;5.13;;;1.60;;
59571;SDS011;59406;45.602;11.904;2023-04-06T10:34:44;5.67;;;2.10;;
59571;SDS011;59406;45.602;11.904;2023-04-06T10:37:11;5.28;;;2.33;;
59571;SDS011;59406;45.602;11.904;2023-04-06T10:39:46;5.93;;;2.40;;
59571;SDS011;59406;45.602;11.904;2023-04-06T10:42:23;5.25;;;2.47;;
59571;SDS011;59406;45.602;11.904;2023-04-06T10:44:50;6.70;;;2.60;;
59571;SDS011;59406;45.602;11.904;2023-04-06T10:47:17;6.13;;;3.03;;
59571;SDS011;59406;45.602;11.904;2023-04-06T10:49:44;6.07;;;2.80;;
59571;SDS011;59406;45.602;11.904;2023-04-06T10:52:10;5.65;;;1.60;;
59571;SDS011;59406;45.602;11.904;2023-04-06T10:54:38;5.78;;;2.38;;
59571;SDS011;59406;45.602;11.904;2023-04-06T10:57:08;4.80;;;2.20;;
59571;SDS011;59406;45.602;11.904;2023-04-06T10:59:34;9.43;;;3.17;;
59571;SDS011;59406;45.602;11.904;2023-04-06T11:02:00;6.05;;;2.95;;
59571;SDS011;59406;45.602;11.904;2023-04-06T11:04:26;6.00;;;2.72;;
59571;SDS011;59406;45.602;11.904;2023-04-06T11:06:52;6.60;;;2.70;;
59571;SDS011;59406;45.602;11.904;2023-04-06T11:09:29;5.68;;;2.72;;
59571;SDS011;59406;45.602;11.904;2023-04-06T11:11:56;4.75;;;1.65;;
59571;SDS011;59406;45.602;11.904;2023-04-06T11:14:23;4.40;;;1.35;;
59571;SDS011;59406;45.602;11.904;2023-04-06T11:16:49;3.60;;;1.08;;
59571;SDS011;59406;45.602;11.904;2023-04-06T11:19:15;4.17;;;1.23;;
59571;SDS011;59406;45.602;11.904;2023-04-06T11:21:43;4.00;;;1.15;;
59571;SDS011;59406;45.602;11.904;2023-04-06T11:24:17;4.85;;;1.52;;
59571;SDS011;59406;45.602;11.904;2023-04-06T11:26:48;6.40;;;2.90;;
59571;SDS011;59406;45.602;11.904;2023-04-06T11:29:18;7.22;;;2.95;;
59571;SDS011;59406;45.602;11.904;2023-04-06T11:31:52;6.43;;;2.80;;
59571;SDS011;59406;45.602;11.904;2023-04-06T11:34:25;6.53;;;2.33;;
59571;SDS011;59406;45.602;11.904;2023-04-06T11:36:56;4.70;;;1.75;;
59571;SDS011;59406;45.602;11.904;2023-04-06T11:39:28;5.88;;;1.98;;
59571;SDS011;59406;45.602;11.904;2023-04-06T11:41:59;5.63;;;3.00;;
59571;SDS011;59406;45.602;11.904;2023-04-06T11:44:34;4.67;;;1.63;;
59571;SDS011;59406;45.602;11.904;2023-04-06T11:47:01;8.48;;;3.40;;
59571;SDS011;59406;45.602;11.904;2023-04-06T11:49:29;5.00;;;1.63;;
59571;SDS011;59406;45.602;11.904;2023-04-06T11:51:59;5.60;;;2.08;;
59571;SDS011;59406;45.602;11.904;2023-04-06T11:54:29;4.53;;;1.92;;
59571;SDS011;59406;45.602;11.904;2023-04-06T11:56:56;5.53;;;2.83;;
59571;SDS011;59406;45.602;11.904;2023-04-06T11:59:22;6.85;;;2.97;;
59571;SDS011;59406;45.602;11.904;2023-04-06T12:01:48;5.43;;;2.42;;
59571;SDS011;59406;45.602;11.904;2023-04-06T12:04:14;7.55;;;3.38;;
59571;SDS011;59406;45.602;11.904;2023-04-06T12:06:40;5.87;;;2.60;;
59571;SDS011;59406;45.602;11.904;2023-04-06T12:09:06;5.78;;;2.53;;
59571;SDS011;59406;45.602;11.904;2023-04-06T12:11:32;5.10;;;2.03;;
59571;SDS011;59406;45.602;11.904;2023-04-06T12:13:58;4.30;;;1.40;;
59571;SDS011;59406;45.602;11.904;2023-04-06T12:16:26;3.90;;;1.40;;
59571;SDS011;59406;45.602;11.904;2023-04-06T12:18:52;5.55;;;1.98;;
59571;SDS011;59406;45.602;11.904;2023-04-06T12:21:19;6.07;;;2.90;;
59571;SDS011;59406;45.602;11.904;2023-04-06T12:23:45;6.68;;;2.85;;
59571;SDS011;59406;45.602;11.904;2023-04-06T12:26:11;6.53;;;2.97;;
59571;SDS011;59406;45.602;11.904;2023-04-06T12:28:36;8.80;;;3.57;;
59571;SDS011;59406;45.602;11.904;2023-04-06T12:31:02;5.93;;;2.85;;
59571;SDS011;59406;45.602;11.904;2023-04-06T12:33:29;5.82;;;3.20;;
59571;SDS011;59406;45.602;11.904;2023-04-06T12:35:54;7.90;;;3.35;;
59571;SDS011;59406;45.602;11.904;2023-04-06T12:38:21;4.67;;;1.40;;
59571;SDS011;59406;45.602;11.904;2023-04-06T12:40:47;5.25;;;1.80;;
59571;SDS011;59406;45.602;11.904;2023-04-06T12:43:13;5.18;;;2.55;;
59571;SDS011;59406;45.602;11.904;2023-04-06T12:48:09;5.47;;;2.67;;
59571;SDS011;59406;45.602;11.904;2023-04-06T12:53:04;6.97;;;3.25;;
59571;SDS011;59406;45.602;11.904;2023-04-06T12:55:30;5.05;;;1.95;;
59571;SDS011;59406;45.602;11.904;2023-04-06T12:57:59;7.85;;;3.08;;
59571;SDS011;59406;45.602;11.904;2023-04-06T13:00:25;6.53;;;3.40;;
59571;SDS011;59406;45.602;11.904;2023-04-06T13:05:18;6.03;;;2.38;;
59571;SDS011;59406;45.602;11.904;2023-04-06T13:07:44;7.70;;;3.00;;
59571;SDS011;59406;45.602;11.904;2023-04-06T13:10:11;6.97;;;3.50;;
59571;SDS011;59406;45.602;11.904;2023-04-06T13:15:08;4.80;;;2.38;;
59571;SDS011;59406;45.602;11.904;2023-04-06T13:17:35;5.47;;;2.47;;
59571;SDS011;59406;45.602;11.904;2023-04-06T13:20:01;8.17;;;3.47;;
59571;SDS011;59406;45.602;11.904;2023-04-06T13:22:28;7.68;;;3.80;;
59571;SDS011;59406;45.602;11.904;2023-04-06T13:24:54;6.72;;;3.05;;
59571;SDS011;59406;45.602;11.904;2023-04-06T13:27:20;7.03;;;3.70;;
59571;SDS011;59406;45.602;11.904;2023-04-06T13:29:46;7.93;;;3.03;;
59571;SDS011;59406;45.602;11.904;2023-04-06T13:32:13;6.43;;;2.80;;
59571;SDS011;59406;45.602;11.904;2023-04-06T13:34:39;7.13;;;3.35;;
59571;SDS011;59406;45.602;11.904;2023-04-06T13:37:11;6.80;;;3.78;;
59571;SDS011;59406;45.602;11.904;2023-04-06T13:39:39;7.32;;;2.95;;
59571;SDS011;59406;45.602;11.904;2023-04-06T13:42:05;6.87;;;4.07;;
59571;SDS011;59406;45.602;11.904;2023-04-06T13:44:32;7.03;;;4.00;;
59571;SDS011;59406;45.602;11.904;2023-04-06T13:46:58;8.25;;;3.75;;
59571;SDS011;59406;45.602;11.904;2023-04-06T13:49:24;7.65;;;4.10;;
59571;SDS011;59406;45.602;11.904;2023-04-06T13:51:50;8.52;;;4.13;;
59571;SDS011;59406;45.602;11.904;2023-04-06T13:54:16;6.93;;;3.60;;
59571;SDS011;59406;45.602;11.904;2023-04-06T13:56:42;6.57;;;3.35;;
59571;SDS011;59406;45.602;11.904;2023-04-06T13:59:08;8.15;;;3.97;;
59571;SDS011;59406;45.602;11.904;2023-04-06T14:01:34;5.57;;;2.10;;
59571;SDS011;59406;45.602;11.904;2023-04-06T14:04:00;7.05;;;4.20;;
59571;SDS011;59406;45.602;11.904;2023-04-06T14:08:55;7.22;;;3.53;;
59571;SDS011;59406;45.602;11.904;2023-04-06T14:11:22;7.40;;;4.03;;
59571;SDS011;59406;45.602;11.904;2023-04-06T14:13:48;6.55;;;3.00;;
59571;SDS011;59406;45.602;11.904;2023-04-06T14:16:13;7.90;;;3.75;;
59571;SDS011;59406;45.602;11.904;2023-04-06T14:18:40;7.95;;;4.00;;
59571;SDS011;59406;45.602;11.904;2023-04-06T14:21:06;5.73;;;2.67;;
59571;SDS011;59406;45.602;11.904;2023-04-06T14:23:32;7.20;;;3.17;;
59571;SDS011;59406;45.602;11.904;2023-04-06T14:26:05;7.45;;;4.13;;
59571;SDS011;59406;45.602;11.904;2023-04-06T14:28:32;8.93;;;4.00;;
59571;SDS011;59406;45.602;11.904;2023-04-06T14:30:59;7.63;;;3.80;;
59571;SDS011;59406;45.602;11.904;2023-04-06T14:33:26;7.38;;;3.95;;
59571;SDS011;59406;45.602;11.904;2023-04-06T14:35:52;9.73;;;4.55;;
59571;SDS011;59406;45.602;11.904;2023-04-06T14:38:18;7.97;;;3.40;;
59571;SDS011;59406;45.602;11.904;2023-04-06T14:40:44;7.43;;;3.50;;
59571;SDS011;59406;45.602;11.904;2023-04-06T14:45:44;7.45;;;3.35;;
59571;SDS011;59406;45.602;11.904;2023-04-06T14:48:10;10.45;;;3.50;;
59571;SDS011;59406;45.602;11.904;2023-04-06T14:53:10;4.27;;;1.70;;
59571;SDS011;59406;45.602;11.904;2023-04-06T14:55:38;5.97;;;2.30;;
59571;SDS011;59406;45.602;11.904;2023-04-06T14:58:06;6.63;;;2.90;;
59571;SDS011;59406;45.602;11.904;2023-04-06T15:00:32;7.70;;;3.55;;
59571;SDS011;59406;45.602;11.904;2023-04-06T15:02:58;8.73;;;4.10;;
59571;SDS011;59406;45.602;11.904;2023-04-06T15:05:24;7.55;;;3.83;;
59571;SDS011;59406;45.602;11.904;2023-04-06T15:07:50;6.97;;;4.20;;
59571;SDS011;59406;45.602;11.904;2023-04-06T15:10:16;8.80;;;4.28;;
59571;SDS011;59406;45.602;11.904;2023-04-06T15:12:42;6.37;;;3.33;;
59571;SDS011;59406;45.602;11.904;2023-04-06T15:15:08;8.25;;;4.00;;
59571;SDS011;59406;45.602;11.904;2023-04-06T15:17:34;8.23;;;4.00;;
59571;SDS011;59406;45.602;11.904;2023-04-06T15:25:16;6.50;;;3.07;;
59571;SDS011;59406;45.602;11.904;2023-04-06T15:27:42;5.50;;;2.30;;
59571;SDS011;59406;45.602;11.904;2023-04-06T15:30:08;6.50;;;3.50;;
59571;SDS011;59406;45.602;11.904;2023-04-06T15:32:34;8.52;;;3.95;;
59571;SDS011;59406;45.602;11.904;2023-04-06T15:35:10;6.13;;;3.27;;
59571;SDS011;59406;45.602;11.904;2023-04-06T15:37:37;10.07;;;3.90;;
59571;SDS011;59406;45.602;11.904;2023-04-06T15:40:04;7.88;;;3.90;;
59571;SDS011;59406;45.602;11.904;2023-04-06T15:42:30;7.57;;;3.22;;
59571;SDS011;59406;45.602;11.904;2023-04-06T15:44:56;7.17;;;4.10;;
59571;SDS011;59406;45.602;11.904;2023-04-06T15:47:22;6.43;;;3.25;;
59571;SDS011;59406;45.602;11.904;2023-04-06T15:49:47;9.18;;;4.00;;
59571;SDS011;59406;45.602;11.904;2023-04-06T15:52:13;7.27;;;3.43;;
59571;SDS011;59406;45.602;11.904;2023-04-06T15:54:39;6.88;;;3.08;;
59571;SDS011;59406;45.602;11.904;2023-04-06T15:57:06;7.20;;;3.35;;
59571;SDS011;59406;45.602;11.904;2023-04-06T15:59:32;7.07;;;3.53;;
59571;SDS011;59406;45.602;11.904;2023-04-06T16:01:58;7.87;;;3.90;;
59571;SDS011;59406;45.602;11.904;2023-04-06T16:04:24;9.07;;;3.90;;
59571;SDS011;59406;45.602;11.904;2023-04-06T16:06:50;6.93;;;3.65;;
59571;SDS011;59406;45.602;11.904;2023-04-06T16:09:16;8.27;;;3.87;;
59571;SDS011;59406;45.602;11.904;2023-04-06T16:11:42;7.30;;;3.70;;
59571;SDS011;59406;45.602;11.904;2023-04-06T16:14:08;6.22;;;3.25;;
59571;SDS011;59406;45.602;11.904;2023-04-06T16:16:34;9.38;;;4.10;;
59571;SDS011;59406;45.602;11.904;2023-04-06T16:19:00;7.38;;;3.47;;
59571;SDS011;59406;45.602;11.904;2023-04-06T16:21:26;7.43;;;3.70;;
59571;SDS011;59406;45.602;11.904;2023-04-06T16:23:52;7.38;;;3.63;;
59571;SDS011;59406;45.602;11.904;2023-04-06T16:26:20;7.38;;;3.72;;
59571;SDS011;59406;45.602;11.904;2023-04-06T16:28:46;7.30;;;3.37;;
59571;SDS011;59406;45.602;11.904;2023-04-06T16:36:20;7.65;;;2.80;;
59571;SDS011;59406;45.602;11.904;2023-04-06T16:42:04;6.55;;;3.50;;